sensor_id;sensor_type;location;lat;lon;timestamp;P1;durP1;ratioP1;P2;durP2;ratioP2
20314;SDS011;10315;50.958;13.080;2023-08-06T00:05:18;8.23;;;6.07;;
20314;SDS011;10315;50.958;13.080;2023-08-06T00:15:23;9.40;;;5.53;;
20314;SDS011;10315;50.958;13.080;2023-08-06T00:25:25;9.30;;;6.07;;
20314;SDS011;10315;50.958;13.080;2023-08-06T00:35:28;10.80;;;6.03;;
20314;SDS011;10315;50.958;13.080;2023-08-06T00:45:31;9.90;;;6.13;;
20314;SDS011;10315;50.958;13.080;2023-08-06T00:55:37;10.07;;;6.22;;
20314;SDS011;10315;50.958;13.080;2023-08-06T01:05:39;6.90;;;5.53;;
20314;SDS011;10315;50.958;13.080;2023-08-06T01:15:43;7.53;;;5.45;;
20314;SDS011;10315;50.958;13.080;2023-08-06T01:25:53;8.65;;;6.30;;
20314;SDS011;10315;50.958;13.080;2023-08-06T01:36:02;9.20;;;6.20;;
20314;SDS011;10315;50.958;13.080;2023-08-06T01:46:06;14.30;;;6.60;;
20314;SDS011;10315;50.958;13.080;2023-08-06T01:56:08;9.18;;;6.47;;
20314;SDS011;10315;50.958;13.080;2023-08-06T02:06:11;9.95;;;6.43;;
20314;SDS011;10315;50.958;13.080;2023-08-06T02:16:12;10.85;;;8.57;;
20314;SDS011;10315;50.958;13.080;2023-08-06T02:26:15;13.65;;;8.38;;
20314;SDS011;10315;50.958;13.080;2023-08-06T02:36:17;12.25;;;8.50;;
20314;SDS011;10315;50.958;13.080;2023-08-06T02:46:20;17.02;;;7.18;;
20314;SDS011;10315;50.958;13.080;2023-08-06T02:56:22;12.95;;;8.43;;
20314;SDS011;10315;50.958;13.080;2023-08-06T03:06:25;11.60;;;7.88;;
20314;SDS011;10315;50.958;13.080;2023-08-06T03:16:26;10.52;;;7.15;;
20314;SDS011;10315;50.958;13.080;2023-08-06T03:26:30;15.10;;;7.80;;
20314;SDS011;10315;50.958;13.080;2023-08-06T03:36:31;12.77;;;7.65;;
20314;SDS011;10315;50.958;13.080;2023-08-06T03:46:34;11.63;;;7.78;;
20314;SDS011;10315;50.958;13.080;2023-08-06T03:56:36;11.90;;;7.25;;
20314;SDS011;10315;50.958;13.080;2023-08-06T04:06:39;13.30;;;7.60;;
20314;SDS011;10315;50.958;13.080;2023-08-06T04:16:41;11.87;;;7.77;;
20314;SDS011;10315;50.958;13.080;2023-08-06T04:26:44;15.00;;;8.27;;
20314;SDS011;10315;50.958;13.080;2023-08-06T04:36:45;13.50;;;7.87;;
20314;SDS011;10315;50.958;13.080;2023-08-06T04:46:48;17.43;;;8.57;;
20314;SDS011;10315;50.958;13.080;2023-08-06T04:56:50;13.03;;;8.57;;
20314;SDS011;10315;50.958;13.080;2023-08-06T05:06:53;12.77;;;8.10;;
20314;SDS011;10315;50.958;13.080;2023-08-06T05:16:57;10.50;;;7.23;;
20314;SDS011;10315;50.958;13.080;2023-08-06T05:27:00;9.83;;;6.03;;
20314;SDS011;10315;50.958;13.080;2023-08-06T05:37:01;5.83;;;4.27;;
20314;SDS011;10315;50.958;13.080;2023-08-06T05:47:05;4.77;;;3.00;;
20314;SDS011;10315;50.958;13.080;2023-08-06T05:57:06;3.00;;;2.70;;
20314;SDS011;10315;50.958;13.080;2023-08-06T06:07:09;3.13;;;2.53;;
20314;SDS011;10315;50.958;13.080;2023-08-06T06:17:11;2.93;;;2.10;;
20314;SDS011;10315;50.958;13.080;2023-08-06T06:27:14;2.15;;;1.80;;
20314;SDS011;10315;50.958;13.080;2023-08-06T06:37:16;2.47;;;2.20;;
20314;SDS011;10315;50.958;13.080;2023-08-06T06:47:19;2.92;;;1.88;;
20314;SDS011;10315;50.958;13.080;2023-08-06T06:57:27;5.57;;;3.07;;
20314;SDS011;10315;50.958;13.080;2023-08-06T07:07:33;2.90;;;2.60;;
20314;SDS011;10315;50.958;13.080;2023-08-06T07:17:35;4.90;;;3.23;;
20314;SDS011;10315;50.958;13.080;2023-08-06T07:27:38;3.72;;;3.35;;
20314;SDS011;10315;50.958;13.080;2023-08-06T07:37:40;5.18;;;3.63;;
20314;SDS011;10315;50.958;13.080;2023-08-06T07:47:43;4.45;;;2.95;;
20314;SDS011;10315;50.958;13.080;2023-08-06T07:57:44;4.32;;;3.28;;
20314;SDS011;10315;50.958;13.080;2023-08-06T08:07:47;5.70;;;3.30;;
20314;SDS011;10315;50.958;13.080;2023-08-06T08:17:49;4.05;;;2.95;;
20314;SDS011;10315;50.958;13.080;2023-08-06T08:27:52;6.72;;;3.60;;
20314;SDS011;10315;50.958;13.080;2023-08-06T08:37:55;5.70;;;4.35;;
20314;SDS011;10315;50.958;13.080;2023-08-06T08:47:58;5.30;;;4.13;;
20314;SDS011;10315;50.958;13.080;2023-08-06T08:58:01;5.18;;;3.75;;
20314;SDS011;10315;50.958;13.080;2023-08-06T09:08:04;3.33;;;3.03;;
20314;SDS011;10315;50.958;13.080;2023-08-06T09:18:09;3.72;;;3.20;;
20314;SDS011;10315;50.958;13.080;2023-08-06T09:28:13;4.25;;;3.63;;
20314;SDS011;10315;50.958;13.080;2023-08-06T09:38:14;4.32;;;3.53;;
20314;SDS011;10315;50.958;13.080;2023-08-06T09:48:17;3.50;;;2.95;;
20314;SDS011;10315;50.958;13.080;2023-08-06T09:58:19;4.18;;;3.08;;
20314;SDS011;10315;50.958;13.080;2023-08-06T10:08:28;4.05;;;2.60;;
20314;SDS011;10315;50.958;13.080;2023-08-06T10:18:29;3.22;;;2.50;;
20314;SDS011;10315;50.958;13.080;2023-08-06T10:28:37;2.33;;;2.13;;
20314;SDS011;10315;50.958;13.080;2023-08-06T10:38:45;2.70;;;2.30;;
20314;SDS011;10315;50.958;13.080;2023-08-06T10:48:50;2.55;;;2.35;;
20314;SDS011;10315;50.958;13.080;2023-08-06T10:58:54;2.13;;;1.85;;
20314;SDS011;10315;50.958;13.080;2023-08-06T11:08:58;2.05;;;1.70;;
20314;SDS011;10315;50.958;13.080;2023-08-06T11:19:00;2.70;;;1.50;;
20314;SDS011;10315;50.958;13.080;2023-08-06T11:29:03;1.77;;;1.67;;
20314;SDS011;10315;50.958;13.080;2023-08-06T11:39:05;2.05;;;1.88;;
20314;SDS011;10315;50.958;13.080;2023-08-06T11:49:11;3.35;;;2.08;;
20314;SDS011;10315;50.958;13.080;2023-08-06T11:59:13;1.52;;;1.40;;
20314;SDS011;10315;50.958;13.080;2023-08-06T12:09:16;1.50;;;1.40;;
20314;SDS011;10315;50.958;13.080;2023-08-06T12:19:17;1.38;;;1.30;;
20314;SDS011;10315;50.958;13.080;2023-08-06T12:29:21;2.72;;;1.30;;
20314;SDS011;10315;50.958;13.080;2023-08-06T12:39:23;1.13;;;1.08;;
20314;SDS011;10315;50.958;13.080;2023-08-06T12:49:26;1.20;;;1.10;;
20314;SDS011;10315;50.958;13.080;2023-08-06T12:59:28;2.88;;;1.30;;
20314;SDS011;10315;50.958;13.080;2023-08-06T13:09:32;1.20;;;1.10;;
20314;SDS011;10315;50.958;13.080;2023-08-06T13:19:33;1.88;;;1.35;;
20314;SDS011;10315;50.958;13.080;2023-08-06T13:29:36;2.15;;;1.42;;
20314;SDS011;10315;50.958;13.080;2023-08-06T13:39:38;1.88;;;1.30;;
20314;SDS011;10315;50.958;13.080;2023-08-06T13:49:44;2.55;;;1.70;;
20314;SDS011;10315;50.958;13.080;2023-08-06T13:59:46;1.83;;;1.50;;
20314;SDS011;10315;50.958;13.080;2023-08-06T14:09:49;2.25;;;1.45;;
20314;SDS011;10315;50.958;13.080;2023-08-06T14:19:51;5.22;;;1.77;;
20314;SDS011;10315;50.958;13.080;2023-08-06T14:29:54;2.63;;;1.40;;
20314;SDS011;10315;50.958;13.080;2023-08-06T14:39:56;1.60;;;1.50;;
20314;SDS011;10315;50.958;13.080;2023-08-06T14:49:59;1.63;;;1.52;;
20314;SDS011;10315;50.958;13.080;2023-08-06T15:00:00;4.93;;;1.60;;
20314;SDS011;10315;50.958;13.080;2023-08-06T15:10:04;1.65;;;1.50;;
20314;SDS011;10315;50.958;13.080;2023-08-06T15:20:07;2.08;;;1.38;;
20314;SDS011;10315;50.958;13.080;2023-08-06T15:30:14;1.60;;;1.42;;
20314;SDS011;10315;50.958;13.080;2023-08-06T15:40:15;3.65;;;1.55;;
20314;SDS011;10315;50.958;13.080;2023-08-06T15:50:19;5.85;;;1.73;;
20314;SDS011;10315;50.958;13.080;2023-08-06T16:00:20;4.80;;;1.80;;
20314;SDS011;10315;50.958;13.080;2023-08-06T16:10:23;1.67;;;1.58;;
20314;SDS011;10315;50.958;13.080;2023-08-06T16:20:25;2.03;;;1.42;;
20314;SDS011;10315;50.958;13.080;2023-08-06T16:30:28;2.08;;;1.48;;
20314;SDS011;10315;50.958;13.080;2023-08-06T16:40:31;1.13;;;1.02;;
20314;SDS011;10315;50.958;13.080;2023-08-06T16:50:34;0.68;;;0.68;;
20314;SDS011;10315;50.958;13.080;2023-08-06T17:00:38;2.80;;;1.40;;
20314;SDS011;10315;50.958;13.080;2023-08-06T17:10:41;4.30;;;1.52;;
20314;SDS011;10315;50.958;13.080;2023-08-06T17:20:43;3.88;;;1.27;;
20314;SDS011;10315;50.958;13.080;2023-08-06T17:30:47;2.15;;;1.20;;
20314;SDS011;10315;50.958;13.080;2023-08-06T17:40:52;1.73;;;1.38;;
20314;SDS011;10315;50.958;13.080;2023-08-06T17:50:56;2.88;;;1.75;;
20314;SDS011;10315;50.958;13.080;2023-08-06T18:00:58;2.10;;;1.38;;
20314;SDS011;10315;50.958;13.080;2023-08-06T18:11:01;4.00;;;2.10;;
20314;SDS011;10315;50.958;13.080;2023-08-06T18:21:03;5.50;;;1.70;;
20314;SDS011;10315;50.958;13.080;2023-08-06T18:31:06;11.93;;;2.95;;
20314;SDS011;10315;50.958;13.080;2023-08-06T18:41:08;7.80;;;2.77;;
20314;SDS011;10315;50.958;13.080;2023-08-06T18:51:10;6.82;;;2.38;;
20314;SDS011;10315;50.958;13.080;2023-08-06T19:01:12;5.37;;;2.73;;
20314;SDS011;10315;50.958;13.080;2023-08-06T19:11:15;6.88;;;3.42;;
20314;SDS011;10315;50.958;13.080;2023-08-06T19:21:17;7.83;;;3.37;;
20314;SDS011;10315;50.958;13.080;2023-08-06T19:31:20;5.43;;;3.47;;
20314;SDS011;10315;50.958;13.080;2023-08-06T19:41:21;4.87;;;3.47;;
20314;SDS011;10315;50.958;13.080;2023-08-06T19:51:24;4.72;;;3.38;;
20314;SDS011;10315;50.958;13.080;2023-08-06T20:01:26;4.83;;;2.60;;
20314;SDS011;10315;50.958;13.080;2023-08-06T20:11:30;8.53;;;2.93;;
20314;SDS011;10315;50.958;13.080;2023-08-06T20:21:32;3.88;;;3.22;;
20314;SDS011;10315;50.958;13.080;2023-08-06T20:31:35;9.23;;;3.17;;
20314;SDS011;10315;50.958;13.080;2023-08-06T20:41:36;4.80;;;3.33;;
20314;SDS011;10315;50.958;13.080;2023-08-06T20:51:42;3.20;;;2.33;;
20314;SDS011;10315;50.958;13.080;2023-08-06T21:01:43;5.10;;;2.17;;
20314;SDS011;10315;50.958;13.080;2023-08-06T21:11:46;5.33;;;1.83;;
20314;SDS011;10315;50.958;13.080;2023-08-06T21:21:48;3.43;;;2.70;;
20314;SDS011;10315;50.958;13.080;2023-08-06T21:31:51;4.43;;;3.17;;
20314;SDS011;10315;50.958;13.080;2023-08-06T21:41:52;3.67;;;2.50;;
20314;SDS011;10315;50.958;13.080;2023-08-06T21:51:55;3.33;;;2.67;;
20314;SDS011;10315;50.958;13.080;2023-08-06T22:01:58;6.53;;;2.73;;
20314;SDS011;10315;50.958;13.080;2023-08-06T22:12:01;3.53;;;2.47;;
20314;SDS011;10315;50.958;13.080;2023-08-06T22:22:04;6.00;;;2.93;;
20314;SDS011;10315;50.958;13.080;2023-08-06T22:32:07;4.20;;;2.87;;
20314;SDS011;10315;50.958;13.080;2023-08-06T22:42:09;7.57;;;2.70;;
20314;SDS011;10315;50.958;13.080;2023-08-06T22:52:13;4.60;;;3.77;;
20314;SDS011;10315;50.958;13.080;2023-08-06T23:02:14;9.93;;;4.30;;
20314;SDS011;10315;50.958;13.080;2023-08-06T23:12:17;6.73;;;4.60;;
20314;SDS011;10315;50.958;13.080;2023-08-06T23:22:19;9.77;;;4.07;;
20314;SDS011;10315;50.958;13.080;2023-08-06T23:32:22;7.57;;;4.77;;
20314;SDS011;10315;50.958;13.080;2023-08-06T23:42:26;6.43;;;4.70;;
20314;SDS011;10315;50.958;13.080;2023-08-06T23:52:31;7.10;;;4.53;;
